sensor_id;sensor_type;location;lat;lon;timestamp;pressure;altitude;pressure_sealevel;temperature
15544;BMP180;7873;52.230;12.856;2023-04-24T00:00:51;99519.81;;;23.00
15544;BMP180;7873;52.230;12.856;2023-04-24T00:03:19;99517.97;;;23.00
15544;BMP180;7873;52.230;12.856;2023-04-24T00:05:46;99509.31;;;22.98
15544;BMP180;7873;52.230;12.856;2023-04-24T00:08:13;99498.56;;;22.98
15544;BMP180;7873;52.230;12.856;2023-04-24T00:10:40;99498.94;;;22.95
15544;BMP180;7873;52.230;12.856;2023-04-24T00:13:07;99523.13;;;22.95
15544;BMP180;7873;52.230;12.856;2023-04-24T00:15:34;99514.25;;;22.95
15544;BMP180;7873;52.230;12.856;2023-04-24T00:18:00;99503.50;;;22.95
15544;BMP180;7873;52.230;12.856;2023-04-24T00:20:29;99512.59;;;22.94
15544;BMP180;7873;52.230;12.856;2023-04-24T00:22:57;99492.16;;;22.93
15544;BMP180;7873;52.230;12.856;2023-04-24T00:25:24;99498.34;;;22.93
15544;BMP180;7873;52.230;12.856;2023-04-24T00:27:51;99485.13;;;22.92
15544;BMP180;7873;52.230;12.856;2023-04-24T00:30:18;99494.00;;;22.92
15544;BMP180;7873;52.230;12.856;2023-04-24T00:32:44;99492.34;;;22.91
15544;BMP180;7873;52.230;12.856;2023-04-24T00:35:11;99497.72;;;22.91
15544;BMP180;7873;52.230;12.856;2023-04-24T00:37:39;99481.84;;;22.90
15544;BMP180;7873;52.230;12.856;2023-04-24T00:40:06;99481.00;;;22.89
15544;BMP180;7873;52.230;12.856;2023-04-24T00:42:34;99480.19;;;22.89
15544;BMP180;7873;52.230;12.856;2023-04-24T00:45:00;99493.38;;;22.90
15544;BMP180;7873;52.230;12.856;2023-04-24T00:47:28;99487.19;;;22.90
15544;BMP180;7873;52.230;12.856;2023-04-24T00:49:55;99498.75;;;22.90
15544;BMP180;7873;52.230;12.856;2023-04-24T00:52:22;99488.84;;;22.91
15544;BMP180;7873;52.230;12.856;2023-04-24T00:54:50;99485.31;;;22.90
15544;BMP180;7873;52.230;12.856;2023-04-24T00:57:17;99479.16;;;22.90
15544;BMP180;7873;52.230;12.856;2023-04-24T00:59:44;99476.66;;;22.88
15544;BMP180;7873;52.230;12.856;2023-04-24T01:02:12;99467.56;;;22.89
15544;BMP180;7873;52.230;12.856;2023-04-24T01:04:39;99464.28;;;22.87
15544;BMP180;7873;52.230;12.856;2023-04-24T01:07:05;99452.72;;;22.87
15544;BMP180;7873;52.230;12.856;2023-04-24T01:09:36;99459.75;;;22.88
15544;BMP180;7873;52.230;12.856;2023-04-24T01:12:04;99457.06;;;22.88
15544;BMP180;7873;52.230;12.856;2023-04-24T01:14:31;99462.63;;;22.86
15544;BMP180;7873;52.230;12.856;2023-04-24T01:16:58;99460.13;;;22.85
15544;BMP180;7873;52.230;12.856;2023-04-24T01:19:25;99460.13;;;22.85
15544;BMP180;7873;52.230;12.856;2023-04-24T01:21:53;99460.13;;;22.85
15544;BMP180;7873;52.230;12.856;2023-04-24T01:24:24;99462.00;;;22.84
15544;BMP180;7873;52.230;12.856;2023-04-24T01:26:51;99456.84;;;22.83
15544;BMP180;7873;52.230;12.856;2023-04-24T01:29:18;99453.94;;;22.84
15544;BMP180;7873;52.230;12.856;2023-04-24T01:31:45;99462.00;;;22.84
15544;BMP180;7873;52.230;12.856;2023-04-24T01:34:12;99455.00;;;22.83
15544;BMP180;7873;52.230;12.856;2023-04-24T01:36:39;99460.34;;;22.83
15544;BMP180;7873;52.230;12.856;2023-04-24T01:39:07;99465.72;;;22.83
15544;BMP180;7873;52.230;12.856;2023-04-24T01:41:36;99455.19;;;22.82
15544;BMP180;7873;52.230;12.856;2023-04-24T01:44:02;99466.94;;;22.81
15544;BMP180;7873;52.230;12.856;2023-04-24T01:46:29;99461.56;;;22.81
15544;BMP180;7873;52.230;12.856;2023-04-24T01:48:58;99453.53;;;22.81
15544;BMP180;7873;52.230;12.856;2023-04-24T01:51:26;99456.22;;;22.81
15544;BMP180;7873;52.230;12.856;2023-04-24T01:53:52;99451.88;;;22.80
15544;BMP180;7873;52.230;12.856;2023-04-24T01:56:19;99443.03;;;22.79
15544;BMP180;7873;52.230;12.856;2023-04-24T01:58:48;99449.19;;;22.80
15544;BMP180;7873;52.230;12.856;2023-04-24T02:01:17;99444.25;;;22.77
15544;BMP180;7873;52.230;12.856;2023-04-24T02:03:44;99447.97;;;22.76
15544;BMP180;7873;52.230;12.856;2023-04-24T02:06:11;99448.81;;;22.76
15544;BMP180;7873;52.230;12.856;2023-04-24T02:08:37;99447.78;;;22.77
15544;BMP180;7873;52.230;12.856;2023-04-24T02:11:04;99438.88;;;22.77
15544;BMP180;7873;52.230;12.856;2023-04-24T02:13:31;99441.56;;;22.77
15544;BMP180;7873;52.230;12.856;2023-04-24T02:15:59;99444.25;;;22.77
15544;BMP180;7873;52.230;12.856;2023-04-24T02:18:26;99438.25;;;22.75
15544;BMP180;7873;52.230;12.856;2023-04-24T02:20:53;99443.63;;;22.75
15544;BMP180;7873;52.230;12.856;2023-04-24T02:23:19;99437.44;;;22.74
15544;BMP180;7873;52.230;12.856;2023-04-24T02:25:46;99431.44;;;22.72
15544;BMP180;7873;52.230;12.856;2023-04-24T02:28:13;99432.47;;;22.71
15544;BMP180;7873;52.230;12.856;2023-04-24T02:30:39;99428.56;;;22.74
15544;BMP180;7873;52.230;12.856;2023-04-24T02:33:08;99425.25;;;22.72
15544;BMP180;7873;52.230;12.856;2023-04-24T02:35:35;99433.31;;;22.72
15544;BMP180;7873;52.230;12.856;2023-04-24T02:38:03;99433.31;;;22.72
15544;BMP180;7873;52.230;12.856;2023-04-24T02:40:30;99427.94;;;22.72
15544;BMP180;7873;52.230;12.856;2023-04-24T02:42:59;99437.03;;;22.71
15544;BMP180;7873;52.230;12.856;2023-04-24T02:45:26;99441.78;;;22.69
15544;BMP180;7873;52.230;12.856;2023-04-24T02:47:54;99433.72;;;22.69
15544;BMP180;7873;52.230;12.856;2023-04-24T02:50:23;99432.47;;;22.71
15544;BMP180;7873;52.230;12.856;2023-04-24T02:52:50;99437.03;;;22.71
15544;BMP180;7873;52.230;12.856;2023-04-24T02:55:16;99441.53;;;22.70
15544;BMP180;7873;52.230;12.856;2023-04-24T02:57:43;99442.56;;;22.69
15544;BMP180;7873;52.230;12.856;2023-04-24T03:00:11;99441.53;;;22.70
15544;BMP180;7873;52.230;12.856;2023-04-24T03:02:38;99447.13;;;22.69
15544;BMP180;7873;52.230;12.856;2023-04-24T03:05:05;99444.88;;;22.66
15544;BMP180;7873;52.230;12.856;2023-04-24T03:07:34;99437.44;;;22.68
15544;BMP180;7873;52.230;12.856;2023-04-24T03:10:01;99447.53;;;22.72
15544;BMP180;7873;52.230;12.856;2023-04-24T03:12:27;99444.66;;;22.74
15544;BMP180;7873;52.230;12.856;2023-04-24T03:14:54;99444.84;;;22.79
15544;BMP180;7873;52.230;12.856;2023-04-24T03:17:21;99452.31;;;22.83
15544;BMP180;7873;52.230;12.856;2023-04-24T03:19:47;99457.44;;;22.85
15544;BMP180;7873;52.230;12.856;2023-04-24T03:22:14;99451.88;;;22.86
15544;BMP180;7873;52.230;12.856;2023-04-24T03:24:42;99453.34;;;22.89
15544;BMP180;7873;52.230;12.856;2023-04-24T03:27:09;99449.63;;;22.90
15544;BMP180;7873;52.230;12.856;2023-04-24T03:29:35;99451.28;;;22.91
15544;BMP180;7873;52.230;12.856;2023-04-24T03:32:02;99446.72;;;22.91
15544;BMP180;7873;52.230;12.856;2023-04-24T03:34:29;99451.28;;;22.91
15544;BMP180;7873;52.230;12.856;2023-04-24T03:36:56;99450.03;;;22.87
15544;BMP180;7873;52.230;12.856;2023-04-24T03:39:22;99452.91;;;22.85
15544;BMP180;7873;52.230;12.856;2023-04-24T03:41:52;99439.09;;;22.88
15544;BMP180;7873;52.230;12.856;2023-04-24T03:44:18;99438.88;;;22.90
15544;BMP180;7873;52.230;12.856;2023-04-24T03:46:45;99438.66;;;22.85
15544;BMP180;7873;52.230;12.856;2023-04-24T03:49:11;99440.72;;;22.89
15544;BMP180;7873;52.230;12.856;2023-04-24T03:51:38;99444.25;;;22.83
15544;BMP180;7873;52.230;12.856;2023-04-24T03:54:05;99439.28;;;22.67
15544;BMP180;7873;52.230;12.856;2023-04-24T03:56:31;99451.25;;;22.71
15544;BMP180;7873;52.230;12.856;2023-04-24T03:58:59;99441.78;;;22.69
15544;BMP180;7873;52.230;12.856;2023-04-24T04:01:26;99447.75;;;22.71
15544;BMP180;7873;52.230;12.856;2023-04-24T04:03:53;99442.81;;;22.74
15544;BMP180;7873;52.230;12.856;2023-04-24T04:06:20;99452.28;;;22.77
15544;BMP180;7873;52.230;12.856;2023-04-24T04:08:47;99439.06;;;22.82
15544;BMP180;7873;52.230;12.856;2023-04-24T04:11:14;99446.94;;;22.83
15544;BMP180;7873;52.230;12.856;2023-04-24T04:13:40;99444.69;;;22.87
15544;BMP180;7873;52.230;12.856;2023-04-24T04:16:09;99449.81;;;22.95
15544;BMP180;7873;52.230;12.856;2023-04-24T04:18:36;99451.06;;;22.99
15544;BMP180;7873;52.230;12.856;2023-04-24T04:21:03;99458.06;;;22.93
15544;BMP180;7873;52.230;12.856;2023-04-24T04:23:30;99462.00;;;22.91
15544;BMP180;7873;52.230;12.856;2023-04-24T04:25:57;99464.28;;;22.94
15544;BMP180;7873;52.230;12.856;2023-04-24T04:28:24;99461.38;;;22.95
15544;BMP180;7873;52.230;12.856;2023-04-24T04:30:51;99463.66;;;22.92
15544;BMP180;7873;52.230;12.856;2023-04-24T04:33:20;99462.19;;;22.89
15544;BMP180;7873;52.230;12.856;2023-04-24T04:35:47;99463.44;;;22.80
15544;BMP180;7873;52.230;12.856;2023-04-24T04:38:15;99473.53;;;22.85
15544;BMP180;7873;52.230;12.856;2023-04-24T04:40:42;99479.53;;;22.74
15544;BMP180;7873;52.230;12.856;2023-04-24T04:43:09;99475.81;;;22.68
15544;BMP180;7873;52.230;12.856;2023-04-24T04:45:36;99472.09;;;22.69
15544;BMP180;7873;52.230;12.856;2023-04-24T04:48:04;99470.03;;;22.78
15544;BMP180;7873;52.230;12.856;2023-04-24T04:50:34;99469.44;;;22.82
15544;BMP180;7873;52.230;12.856;2023-04-24T04:53:01;99465.13;;;22.88
15544;BMP180;7873;52.230;12.856;2023-04-24T04:55:27;99475.63;;;22.96
15544;BMP180;7873;52.230;12.856;2023-04-24T04:57:54;99462.63;;;22.99
15544;BMP180;7873;52.230;12.856;2023-04-24T05:00:22;99471.28;;;22.88
15544;BMP180;7873;52.230;12.856;2023-04-24T05:02:50;99478.69;;;22.73
15544;BMP180;7873;52.230;12.856;2023-04-24T05:05:17;99479.56;;;22.80
15544;BMP180;7873;52.230;12.856;2023-04-24T05:07:45;99484.50;;;22.77
15544;BMP180;7873;52.230;12.856;2023-04-24T05:10:12;99486.78;;;22.86
15544;BMP180;7873;52.230;12.856;2023-04-24T05:12:39;99478.75;;;22.93
15544;BMP180;7873;52.230;12.856;2023-04-24T05:15:06;99480.38;;;22.94
15544;BMP180;7873;52.230;12.856;2023-04-24T05:17:33;99478.31;;;22.96
15544;BMP180;7873;52.230;12.856;2023-04-24T05:20:00;99482.66;;;22.97
15544;BMP180;7873;52.230;12.856;2023-04-24T05:22:28;99482.44;;;22.92
15544;BMP180;7873;52.230;12.856;2023-04-24T05:24:57;99487.41;;;22.88
15544;BMP180;7873;52.230;12.856;2023-04-24T05:27:24;99497.69;;;22.85
15544;BMP180;7873;52.230;12.856;2023-04-24T05:29:50;99499.56;;;22.84
15544;BMP180;7873;52.230;12.856;2023-04-24T05:32:17;99500.38;;;22.85
15544;BMP180;7873;52.230;12.856;2023-04-24T05:34:44;99501.41;;;22.84
15544;BMP180;7873;52.230;12.856;2023-04-24T05:37:10;99495.44;;;22.82
15544;BMP180;7873;52.230;12.856;2023-04-24T05:39:38;99499.78;;;22.83
15544;BMP180;7873;52.230;12.856;2023-04-24T05:42:07;99500.81;;;22.82
15544;BMP180;7873;52.230;12.856;2023-04-24T05:44:34;99510.72;;;22.81
15544;BMP180;7873;52.230;12.856;2023-04-24T05:47:01;99520.63;;;22.81
15544;BMP180;7873;52.230;12.856;2023-04-24T05:49:27;99519.81;;;22.80
15544;BMP180;7873;52.230;12.856;2023-04-24T05:51:54;99512.78;;;22.79
15544;BMP180;7873;52.230;12.856;2023-04-24T05:54:21;99508.47;;;22.78
15544;BMP180;7873;52.230;12.856;2023-04-24T05:56:48;99503.09;;;22.78
15544;BMP180;7873;52.230;12.856;2023-04-24T05:59:17;99500.19;;;22.80
15544;BMP180;7873;52.230;12.856;2023-04-24T06:01:44;99503.72;;;22.80
15544;BMP180;7873;52.230;12.856;2023-04-24T06:04:11;99507.19;;;22.81
15544;BMP180;7873;52.230;12.856;2023-04-24T06:06:39;99517.94;;;22.81
15544;BMP180;7873;52.230;12.856;2023-04-24T06:09:05;99526.84;;;22.81
15544;BMP180;7873;52.230;12.856;2023-04-24T06:11:32;99522.50;;;22.80
15544;BMP180;7873;52.230;12.856;2023-04-24T06:13:59;99520.00;;;22.79
15544;BMP180;7873;52.230;12.856;2023-04-24T06:16:27;99521.88;;;22.78
15544;BMP180;7873;52.230;12.856;2023-04-24T06:18:54;99519.19;;;22.78
15544;BMP180;7873;52.230;12.856;2023-04-24T06:21:20;99524.75;;;22.77
15544;BMP180;7873;52.230;12.856;2023-04-24T06:23:47;99524.75;;;22.77
15544;BMP180;7873;52.230;12.856;2023-04-24T06:26:15;99533.63;;;22.77
15544;BMP180;7873;52.230;12.856;2023-04-24T06:28:41;99532.78;;;22.77
15544;BMP180;7873;52.230;12.856;2023-04-24T06:31:08;99536.50;;;22.76
15544;BMP180;7873;52.230;12.856;2023-04-24T06:33:36;99541.69;;;22.77
15544;BMP180;7873;52.230;12.856;2023-04-24T06:36:04;99541.06;;;22.75
15544;BMP180;7873;52.230;12.856;2023-04-24T06:38:30;99538.16;;;22.77
15544;BMP180;7873;52.230;12.856;2023-04-24T06:40:57;99542.72;;;22.76
15544;BMP180;7873;52.230;12.856;2023-04-24T06:43:24;99533.81;;;22.76
15544;BMP180;7873;52.230;12.856;2023-04-24T06:45:50;99531.16;;;22.76
15544;BMP180;7873;52.230;12.856;2023-04-24T06:48:17;99522.28;;;22.75
15544;BMP180;7873;52.230;12.856;2023-04-24T06:50:45;99526.00;;;22.74
15544;BMP180;7873;52.230;12.856;2023-04-24T06:53:12;99524.31;;;22.73
15544;BMP180;7873;52.230;12.856;2023-04-24T06:55:40;99514.44;;;22.74
15544;BMP180;7873;52.230;12.856;2023-04-24T06:58:07;99510.91;;;22.73
15544;BMP180;7873;52.230;12.856;2023-04-24T07:00:34;99514.44;;;22.74
15544;BMP180;7873;52.230;12.856;2023-04-24T07:03:00;99515.47;;;22.73
15544;BMP180;7873;52.230;12.856;2023-04-24T07:05:27;99514.44;;;22.74
15544;BMP180;7873;52.230;12.856;2023-04-24T07:07:56;99516.28;;;22.73
15544;BMP180;7873;52.230;12.856;2023-04-24T07:10:24;99515.66;;;22.71
15544;BMP180;7873;52.230;12.856;2023-04-24T07:12:52;99509.47;;;22.71
15544;BMP180;7873;52.230;12.856;2023-04-24T07:15:19;99512.97;;;22.71
15544;BMP180;7873;52.230;12.856;2023-04-24T07:17:46;99504.91;;;22.71
15544;BMP180;7873;52.230;12.856;2023-04-24T07:20:12;99511.13;;;22.72
15544;BMP180;7873;52.230;12.856;2023-04-24T07:22:40;99522.66;;;22.72
15544;BMP180;7873;52.230;12.856;2023-04-24T07:25:08;99520.19;;;22.71
15544;BMP180;7873;52.230;12.856;2023-04-24T07:27:35;99514.00;;;22.70
15544;BMP180;7873;52.230;12.856;2023-04-24T07:30:03;99516.69;;;22.70
15544;BMP180;7873;52.230;12.856;2023-04-24T07:32:30;99513.19;;;22.70
15544;BMP180;7873;52.230;12.856;2023-04-24T07:34:56;99509.66;;;22.69
15544;BMP180;7873;52.230;12.856;2023-04-24T07:37:23;99511.31;;;22.70
15544;BMP180;7873;52.230;12.856;2023-04-24T07:39:50;99512.16;;;22.71
15544;BMP180;7873;52.230;12.856;2023-04-24T07:42:18;99508.84;;;22.69
15544;BMP180;7873;52.230;12.856;2023-04-24T07:44:45;99510.28;;;22.71
15544;BMP180;7873;52.230;12.856;2023-04-24T07:47:13;99513.19;;;22.70
15544;BMP180;7873;52.230;12.856;2023-04-24T07:49:41;99520.41;;;22.69
15544;BMP180;7873;52.230;12.856;2023-04-24T07:52:07;99523.91;;;22.70
15544;BMP180;7873;52.230;12.856;2023-04-24T07:54:34;99521.22;;;22.70
15544;BMP180;7873;52.230;12.856;2023-04-24T07:57:02;99516.91;;;22.69
15544;BMP180;7873;52.230;12.856;2023-04-24T07:59:31;99511.53;;;22.69
15544;BMP180;7873;52.230;12.856;2023-04-24T08:01:57;99517.72;;;22.69
15544;BMP180;7873;52.230;12.856;2023-04-24T08:04:24;99512.56;;;22.68
15544;BMP180;7873;52.230;12.856;2023-04-24T08:06:51;99513.38;;;22.68
15544;BMP180;7873;52.230;12.856;2023-04-24T08:09:18;99514.22;;;22.69
15544;BMP180;7873;52.230;12.856;2023-04-24T08:11:44;99510.69;;;22.68
15544;BMP180;7873;52.230;12.856;2023-04-24T08:14:11;99511.53;;;22.69
15544;BMP180;7873;52.230;12.856;2023-04-24T08:16:40;99522.25;;;22.69
15544;BMP180;7873;52.230;12.856;2023-04-24T08:19:06;99522.25;;;22.69
15544;BMP180;7873;52.230;12.856;2023-04-24T08:21:33;99521.44;;;22.68
15544;BMP180;7873;52.230;12.856;2023-04-24T08:24:00;99520.63;;;22.68
15544;BMP180;7873;52.230;12.856;2023-04-24T08:26:30;99523.31;;;22.68
15544;BMP180;7873;52.230;12.856;2023-04-24T08:28:57;99526.78;;;22.68
15544;BMP180;7873;52.230;12.856;2023-04-24T08:31:24;99522.47;;;22.67
15544;BMP180;7873;52.230;12.856;2023-04-24T08:33:52;99518.13;;;22.66
15544;BMP180;7873;52.230;12.856;2023-04-24T08:36:19;99520.81;;;22.66
15544;BMP180;7873;52.230;12.856;2023-04-24T08:38:46;99515.44;;;22.66
15544;BMP180;7873;52.230;12.856;2023-04-24T08:41:14;99520.00;;;22.66
15544;BMP180;7873;52.230;12.856;2023-04-24T08:43:41;99524.53;;;22.65
15544;BMP180;7873;52.230;12.856;2023-04-24T08:46:08;99514.63;;;22.66
15544;BMP180;7873;52.230;12.856;2023-04-24T08:48:35;99519.78;;;22.67
15544;BMP180;7873;52.230;12.856;2023-04-24T08:51:05;99533.00;;;22.69
15544;BMP180;7873;52.230;12.856;2023-04-24T08:53:33;99533.00;;;22.69
15544;BMP180;7873;52.230;12.856;2023-04-24T08:56:01;99533.00;;;22.69
15544;BMP180;7873;52.230;12.856;2023-04-24T08:58:28;99525.75;;;22.69
15544;BMP180;7873;52.230;12.856;2023-04-24T09:00:56;99526.59;;;22.70
15544;BMP180;7873;52.230;12.856;2023-04-24T09:03:23;99526.59;;;22.70
15544;BMP180;7873;52.230;12.856;2023-04-24T09:05:52;99530.09;;;22.70
15544;BMP180;7873;52.230;12.856;2023-04-24T09:08:23;99529.06;;;22.71
15544;BMP180;7873;52.230;12.856;2023-04-24T09:10:50;99518.56;;;22.70
15544;BMP180;7873;52.230;12.856;2023-04-24T09:13:18;99521.22;;;22.70
15544;BMP180;7873;52.230;12.856;2023-04-24T09:15:45;99523.31;;;22.68
15544;BMP180;7873;52.230;12.856;2023-04-24T09:18:12;99523.06;;;22.69
15544;BMP180;7873;52.230;12.856;2023-04-24T09:20:56;99526.59;;;22.70
15544;BMP180;7873;52.230;12.856;2023-04-24T09:23:27;99527.41;;;22.70
15544;BMP180;7873;52.230;12.856;2023-04-24T09:25:55;99522.03;;;22.70
15544;BMP180;7873;52.230;12.856;2023-04-24T09:28:25;99524.09;;;22.68
15544;BMP180;7873;52.230;12.856;2023-04-24T09:31:02;99518.56;;;22.70
15544;BMP180;7873;52.230;12.856;2023-04-24T09:33:29;99524.72;;;22.70
15544;BMP180;7873;52.230;12.856;2023-04-24T09:35:56;99523.69;;;22.71
15544;BMP180;7873;52.230;12.856;2023-04-24T09:38:36;99519.97;;;22.72
15544;BMP180;7873;52.230;12.856;2023-04-24T09:41:05;99524.31;;;22.73
15544;BMP180;7873;52.230;12.856;2023-04-24T09:43:33;99517.94;;;22.74
15544;BMP180;7873;52.230;12.856;2023-04-24T09:46:05;99518.75;;;22.75
15544;BMP180;7873;52.230;12.856;2023-04-24T09:48:33;99516.91;;;22.75
15544;BMP180;7873;52.230;12.856;2023-04-24T09:51:00;99511.56;;;22.75
15544;BMP180;7873;52.230;12.856;2023-04-24T09:53:29;99503.28;;;22.77
15544;BMP180;7873;52.230;12.856;2023-04-24T09:56:02;99505.97;;;22.77
15544;BMP180;7873;52.230;12.856;2023-04-24T09:58:29;99504.13;;;22.77
15544;BMP180;7873;52.230;12.856;2023-04-24T10:00:56;99496.06;;;22.77
15544;BMP180;7873;52.230;12.856;2023-04-24T10:03:24;99496.25;;;22.76
15544;BMP180;7873;52.230;12.856;2023-04-24T10:05:52;99489.25;;;22.75
15544;BMP180;7873;52.230;12.856;2023-04-24T10:08:20;99497.47;;;22.73
15544;BMP180;7873;52.230;12.856;2023-04-24T10:10:47;99507.59;;;22.71
15544;BMP180;7873;52.230;12.856;2023-04-24T10:13:15;99514.84;;;22.71
15544;BMP180;7873;52.230;12.856;2023-04-24T10:15:42;99509.66;;;22.69
15544;BMP180;7873;52.230;12.856;2023-04-24T10:18:09;99514.22;;;22.69
15544;BMP180;7873;52.230;12.856;2023-04-24T10:20:40;99516.69;;;22.70
15544;BMP180;7873;52.230;12.856;2023-04-24T10:23:07;99509.47;;;22.71
15544;BMP180;7873;52.230;12.856;2023-04-24T10:25:35;99509.47;;;22.71
15544;BMP180;7873;52.230;12.856;2023-04-24T10:28:02;99494.00;;;22.73
15544;BMP180;7873;52.230;12.856;2023-04-24T10:30:32;99483.88;;;22.75
15544;BMP180;7873;52.230;12.856;2023-04-24T10:33:01;99501.84;;;22.74
15544;BMP180;7873;52.230;12.856;2023-04-24T10:35:30;99497.91;;;22.77
15544;BMP180;7873;52.230;12.856;2023-04-24T10:38:01;99500.81;;;22.75
15544;BMP180;7873;52.230;12.856;2023-04-24T10:40:31;99501.63;;;22.76
15544;BMP180;7873;52.230;12.856;2023-04-24T10:42:58;99495.22;;;22.77
15544;BMP180;7873;52.230;12.856;2023-04-24T10:45:25;99500.59;;;22.77
15544;BMP180;7873;52.230;12.856;2023-04-24T10:47:56;99492.53;;;22.77
15544;BMP180;7873;52.230;12.856;2023-04-24T10:50:25;99490.09;;;22.75
15544;BMP180;7873;52.230;12.856;2023-04-24T10:52:52;99495.22;;;22.77
15544;BMP180;7873;52.230;12.856;2023-04-24T10:55:41;99486.38;;;22.76
15544;BMP180;7873;52.230;12.856;2023-04-24T10:58:08;99485.53;;;22.76
15544;BMP180;7873;52.230;12.856;2023-04-24T11:00:37;99487.19;;;22.77
15544;BMP180;7873;52.230;12.856;2023-04-24T11:03:06;99489.06;;;22.76
15544;BMP180;7873;52.230;12.856;2023-04-24T11:05:50;99488.03;;;22.77
15544;BMP180;7873;52.230;12.856;2023-04-24T11:08:22;99495.22;;;22.77
15544;BMP180;7873;52.230;12.856;2023-04-24T11:10:55;99495.22;;;22.77
15544;BMP180;7873;52.230;12.856;2023-04-24T11:13:23;99497.91;;;22.77
15544;BMP180;7873;52.230;12.856;2023-04-24T11:16:15;99490.72;;;22.77
15544;BMP180;7873;52.230;12.856;2023-04-24T11:18:43;99488.03;;;22.77
15544;BMP180;7873;52.230;12.856;2023-04-24T11:21:16;99493.16;;;22.79
15544;BMP180;7873;52.230;12.856;2023-04-24T11:23:44;99500.41;;;22.78
15544;BMP180;7873;52.230;12.856;2023-04-24T11:26:12;99494.00;;;22.79
15544;BMP180;7873;52.230;12.856;2023-04-24T11:28:46;99490.47;;;22.79
15544;BMP180;7873;52.230;12.856;2023-04-24T11:31:37;99493.38;;;22.77
15544;BMP180;7873;52.230;12.856;2023-04-24T11:34:09;99498.75;;;22.77
15544;BMP180;7873;52.230;12.856;2023-04-24T11:36:37;99492.34;;;22.78
15544;BMP180;7873;52.230;12.856;2023-04-24T11:39:04;99502.25;;;22.78
15544;BMP180;7873;52.230;12.856;2023-04-24T11:41:32;99497.72;;;22.78
15544;BMP180;7873;52.230;12.856;2023-04-24T11:43:59;99492.34;;;22.78
15544;BMP180;7873;52.230;12.856;2023-04-24T11:46:28;99504.13;;;22.77
15544;BMP180;7873;52.230;12.856;2023-04-24T11:48:55;99504.94;;;22.78
15544;BMP180;7873;52.230;12.856;2023-04-24T11:51:24;99499.56;;;22.78
15544;BMP180;7873;52.230;12.856;2023-04-24T11:53:52;99499.56;;;22.78
15544;BMP180;7873;52.230;12.856;2023-04-24T11:56:19;99502.88;;;22.80
15544;BMP180;7873;52.230;12.856;2023-04-24T11:58:47;99521.47;;;22.81
15544;BMP180;7873;52.230;12.856;2023-04-24T12:01:14;99508.84;;;22.82
15544;BMP180;7873;52.230;12.856;2023-04-24T12:03:41;99516.91;;;22.82
15544;BMP180;7873;52.230;12.856;2023-04-24T12:06:11;99507.81;;;22.83
15544;BMP180;7873;52.230;12.856;2023-04-24T12:08:39;99513.19;;;22.83
15544;BMP180;7873;52.230;12.856;2023-04-24T12:11:07;99507.00;;;22.82
15544;BMP180;7873;52.230;12.856;2023-04-24T12:13:34;99518.56;;;22.83
15544;BMP180;7873;52.230;12.856;2023-04-24T12:16:02;99516.91;;;22.82
15544;BMP180;7873;52.230;12.856;2023-04-24T12:18:29;99510.50;;;22.83
15544;BMP180;7873;52.230;12.856;2023-04-24T12:21:14;99515.06;;;22.82
15544;BMP180;7873;52.230;12.856;2023-04-24T12:23:44;99516.91;;;22.82
15544;BMP180;7873;52.230;12.856;2023-04-24T12:26:12;99516.09;;;22.81
15544;BMP180;7873;52.230;12.856;2023-04-24T12:28:39;99520.44;;;22.82
15544;BMP180;7873;52.230;12.856;2023-04-24T12:31:06;99514.84;;;22.84
15544;BMP180;7873;52.230;12.856;2023-04-24T12:33:34;99524.75;;;22.83
15544;BMP180;7873;52.230;12.856;2023-04-24T12:36:01;99516.72;;;22.83
15544;BMP180;7873;52.230;12.856;2023-04-24T12:38:29;99514.03;;;22.83
15544;BMP180;7873;52.230;12.856;2023-04-24T12:41:04;99516.72;;;22.83
15544;BMP180;7873;52.230;12.856;2023-04-24T12:43:31;99528.25;;;22.84
15544;BMP180;7873;52.230;12.856;2023-04-24T12:45:58;99520.22;;;22.84
15544;BMP180;7873;52.230;12.856;2023-04-24T12:48:25;99518.38;;;22.84
15544;BMP180;7873;52.230;12.856;2023-04-24T12:50:52;99522.88;;;22.84
15544;BMP180;7873;52.230;12.856;2023-04-24T12:53:19;99514.84;;;22.84
15544;BMP180;7873;52.230;12.856;2023-04-24T12:55:46;99512.16;;;22.84
15544;BMP180;7873;52.230;12.856;2023-04-24T12:58:20;99525.56;;;22.84
15544;BMP180;7873;52.230;12.856;2023-04-24T13:00:47;99523.94;;;22.83
15544;BMP180;7873;52.230;12.856;2023-04-24T13:03:14;99518.56;;;22.83
15544;BMP180;7873;52.230;12.856;2023-04-24T13:05:42;99527.22;;;22.85
15544;BMP180;7873;52.230;12.856;2023-04-24T13:08:09;99511.97;;;22.85
15544;BMP180;7873;52.230;12.856;2023-04-24T13:10:35;99503.91;;;22.85
15544;BMP180;7873;52.230;12.856;2023-04-24T13:13:02;99521.84;;;22.85
15544;BMP180;7873;52.230;12.856;2023-04-24T13:15:30;99513.19;;;22.83
15544;BMP180;7873;52.230;12.856;2023-04-24T13:17:57;99525.56;;;22.84
15544;BMP180;7873;52.230;12.856;2023-04-24T13:20:24;99519.19;;;22.85
15544;BMP180;7873;52.230;12.856;2023-04-24T13:22:51;99522.69;;;22.85
15544;BMP180;7873;52.230;12.856;2023-04-24T13:25:18;99517.34;;;22.85
15544;BMP180;7873;52.230;12.856;2023-04-24T13:27:45;99509.28;;;22.85
15544;BMP180;7873;52.230;12.856;2023-04-24T13:30:12;99511.97;;;22.85
15544;BMP180;7873;52.230;12.856;2023-04-24T13:32:40;99501.22;;;22.85
15544;BMP180;7873;52.230;12.856;2023-04-24T13:35:08;99503.72;;;22.87
15544;BMP180;7873;52.230;12.856;2023-04-24T13:37:35;99507.84;;;22.89
15544;BMP180;7873;52.230;12.856;2023-04-24T13:40:02;99505.16;;;22.89
15544;BMP180;7873;52.230;12.856;2023-04-24T13:42:31;99503.50;;;22.88
15544;BMP180;7873;52.230;12.856;2023-04-24T13:44:58;99510.53;;;22.89
15544;BMP180;7873;52.230;12.856;2023-04-24T13:47:25;99505.78;;;22.91
15544;BMP180;7873;52.230;12.856;2023-04-24T13:49:53;99509.28;;;22.92
15544;BMP180;7873;52.230;12.856;2023-04-24T13:52:20;99510.53;;;22.89
15544;BMP180;7873;52.230;12.856;2023-04-24T13:54:47;99504.75;;;22.86
15544;BMP180;7873;52.230;12.856;2023-04-24T13:57:13;99504.53;;;22.87
15544;BMP180;7873;52.230;12.856;2023-04-24T13:59:40;99511.78;;;22.87
15544;BMP180;7873;52.230;12.856;2023-04-24T14:02:07;99511.53;;;22.82
15544;BMP180;7873;52.230;12.856;2023-04-24T14:04:34;99513.41;;;22.75
15544;BMP180;7873;52.230;12.856;2023-04-24T14:07:02;99522.47;;;22.74
15544;BMP180;7873;52.230;12.856;2023-04-24T14:09:28;99514.19;;;22.56
15544;BMP180;7873;52.230;12.856;2023-04-24T14:11:55;99519.69;;;21.61